createdAt,value
2017-02-06T00:00:43.999Z,987.3
2017-02-06T00:01:54.371Z,987.37
2017-02-06T00:03:04.717Z,987.34
2017-02-06T00:04:15.089Z,987.35
2017-02-06T00:05:25.843Z,987.31
2017-02-06T00:06:36.182Z,987.31
2017-02-06T00:07:46.934Z,987.31
2017-02-06T00:08:57.690Z,987.27
2017-02-06T00:10:08.084Z,987.3
2017-02-06T00:11:18.900Z,987.29
2017-02-06T00:12:29.261Z,987.27
2017-02-06T00:13:39.603Z,987.3
2017-02-06T00:14:49.967Z,987.26
2017-02-06T00:16:00.711Z,987.27
2017-02-06T00:17:11.513Z,987.21
2017-02-06T00:18:22.275Z,987.23
2017-02-06T00:19:32.635Z,987.22
2017-02-06T00:20:43.373Z,987.21
2017-02-06T00:21:53.736Z,987.26
2017-02-06T00:23:04.503Z,987.26
2017-02-06T00:24:15.250Z,987.35
2017-02-06T00:25:25.993Z,987.33
2017-02-06T00:26:36.785Z,987.36
2017-02-06T00:27:47.532Z,987.33
2017-02-06T00:28:57.929Z,987.35
2017-02-06T00:30:07.486Z,987.33
2017-02-06T00:31:16.639Z,987.3
2017-02-06T00:32:27.385Z,987.3
2017-02-06T00:33:38.171Z,987.32
2017-02-06T00:34:48.914Z,987.34
2017-02-06T00:35:58.877Z,987.35
2017-02-06T00:37:09.231Z,987.39
2017-02-06T00:38:19.975Z,987.39
2017-02-06T00:39:30.735Z,987.37
2017-02-06T00:40:41.093Z,987.37
2017-02-06T00:41:51.055Z,987.43
2017-02-06T00:43:01.406Z,987.45
2017-02-06T00:44:12.167Z,987.46
2017-02-06T00:45:22.515Z,987.47
2017-02-06T00:46:32.088Z,987.48
2017-02-06T00:47:42.043Z,987.48
2017-02-06T00:48:52.419Z,987.48
2017-02-06T00:50:02.373Z,987.52
2017-02-06T00:51:13.117Z,987.57
2017-02-06T00:52:23.470Z,987.57
2017-02-06T00:53:34.213Z,987.58
2017-02-06T00:54:44.952Z,987.53
2017-02-06T00:55:54.500Z,987.56
2017-02-06T00:57:05.265Z,987.53
2017-02-06T00:58:16.013Z,987.55
2017-02-06T00:59:25.979Z,987.53
2017-02-06T01:00:36.317Z,987.55
2017-02-06T01:01:47.066Z,987.57
2017-02-06T01:02:57.424Z,987.58
2017-02-06T01:04:07.380Z,987.55
2017-02-06T01:05:17.752Z,987.55
2017-02-06T01:06:28.493Z,987.56
2017-02-06T01:07:39.222Z,987.57
2017-02-06T01:08:49.969Z,987.61
2017-02-06T01:10:00.319Z,987.61
2017-02-06T01:11:11.077Z,987.61
2017-02-06T01:12:21.823Z,987.61
2017-02-06T01:13:32.573Z,987.61
2017-02-06T01:14:42.931Z,987.62
2017-02-06T01:15:53.688Z,987.63
2017-02-06T01:17:04.036Z,987.67
2017-02-06T01:18:14.390Z,987.69
2017-02-06T01:19:25.126Z,987.64
2017-02-06T01:20:35.479Z,987.65
2017-02-06T01:21:46.231Z,987.67
2017-02-06T01:22:56.987Z,987.68
2017-02-06T01:24:07.730Z,987.66
2017-02-06T01:25:17.722Z,987.65
2017-02-06T01:26:28.095Z,987.61
2017-02-06T01:27:38.054Z,987.63
2017-02-06T01:28:48.402Z,987.56
2017-02-06T01:29:59.167Z,987.61
2017-02-06T01:31:09.130Z,987.6
2017-02-06T01:32:19.073Z,987.62
2017-02-06T01:33:29.431Z,987.64
2017-02-06T01:34:39.780Z,987.63
2017-02-06T01:35:50.532Z,987.64
2017-02-06T01:37:01.264Z,987.64
2017-02-06T01:38:12.030Z,987.64
2017-02-06T01:39:21.977Z,987.71
2017-02-06T01:40:32.355Z,987.66
2017-02-06T01:41:43.127Z,987.65
2017-02-06T01:42:53.523Z,987.63
2017-02-06T01:44:03.473Z,987.68
2017-02-06T01:45:13.826Z,987.62
2017-02-06T01:46:24.577Z,987.6
2017-02-06T01:47:34.129Z,987.62
2017-02-06T01:48:44.895Z,987.65
2017-02-06T01:49:54.865Z,987.61
2017-02-06T01:51:04.033Z,987.62
2017-02-06T01:52:14.379Z,987.62
2017-02-06T01:53:24.332Z,987.66
2017-02-06T01:54:35.078Z,987.63
2017-02-06T01:55:45.829Z,987.61
2017-02-06T01:56:56.246Z,987.65
2017-02-06T01:58:06.604Z,987.67
2017-02-06T01:59:17.363Z,987.67
2017-02-06T02:00:27.767Z,987.68
2017-02-06T02:01:38.124Z,987.7
2017-02-06T02:02:48.921Z,987.74
2017-02-06T02:03:59.277Z,987.74
2017-02-06T02:05:09.652Z,987.75
2017-02-06T02:06:20.401Z,987.76
2017-02-06T02:07:31.140Z,987.8
2017-02-06T02:08:41.883Z,987.83
2017-02-06T02:09:52.230Z,987.84
2017-02-06T02:11:02.589Z,987.81
2017-02-06T02:12:13.584Z,987.86
2017-02-06T02:13:23.930Z,987.85
2017-02-06T02:14:34.682Z,987.9
2017-02-06T02:15:45.037Z,987.89
2017-02-06T02:16:55.396Z,987.89
2017-02-06T02:18:04.951Z,987.91
2017-02-06T02:19:15.300Z,987.9
2017-02-06T02:20:26.047Z,987.92
2017-02-06T02:21:36.390Z,987.9
2017-02-06T02:22:46.364Z,987.94
2017-02-06T02:23:56.321Z,987.93
2017-02-06T02:25:06.916Z,987.98
2017-02-06T02:26:16.900Z,987.99
2017-02-06T02:27:27.645Z,987.96
2017-02-06T02:28:38.387Z,987.98
2017-02-06T02:29:48.347Z,988
2017-02-06T02:30:58.315Z,987.99
2017-02-06T02:32:08.718Z,988.02
2017-02-06T02:33:19.065Z,988.07
2017-02-06T02:34:29.455Z,988.06
2017-02-06T02:35:39.819Z,988.1
2017-02-06T02:36:50.164Z,988.16
2017-02-06T02:38:00.902Z,988.2
2017-02-06T02:39:11.639Z,988.18
2017-02-06T02:40:22.393Z,988.19
2017-02-06T02:41:33.135Z,988.23
2017-02-06T02:42:43.883Z,988.22
2017-02-06T02:43:54.239Z,988.21
2017-02-06T02:45:04.988Z,988.21
2017-02-06T02:46:14.949Z,988.24
2017-02-06T02:47:25.689Z,988.23
2017-02-06T02:48:36.046Z,988.25
2017-02-06T02:49:46.042Z,988.24
2017-02-06T02:50:56.783Z,988.26
2017-02-06T02:52:06.740Z,988.26
2017-02-06T02:53:17.478Z,988.27
2017-02-06T02:54:27.436Z,988.3
2017-02-06T02:55:38.178Z,988.33
2017-02-06T02:56:48.531Z,988.35
2017-02-06T02:57:59.266Z,988.32
2017-02-06T02:59:09.615Z,988.34
2017-02-06T03:00:19.970Z,988.34
2017-02-06T03:01:30.713Z,988.36
2017-02-06T03:33:04.636Z,988.69
2017-02-06T03:34:15.380Z,988.69
2017-02-06T03:35:25.744Z,988.73
2017-02-06T03:36:36.091Z,988.74
2017-02-06T03:37:46.457Z,988.75
2017-02-06T03:38:57.195Z,988.76
2017-02-06T03:40:07.557Z,988.78
2017-02-06T03:41:18.314Z,988.83
2017-02-06T03:42:28.660Z,988.86
2017-02-06T03:43:38.218Z,988.86
2017-02-06T03:44:48.956Z,988.87
2017-02-06T03:45:59.296Z,988.91
2017-02-06T03:47:09.703Z,988.87
2017-02-06T03:48:20.450Z,988.92
2017-02-06T03:49:31.197Z,988.92
2017-02-06T03:50:41.552Z,988.94
2017-02-06T03:51:52.299Z,988.97
2017-02-06T03:53:03.053Z,989.01
2017-02-06T03:54:13.437Z,988.97
2017-02-06T03:55:23.786Z,988.98
2017-02-06T03:56:34.585Z,989.01
2017-02-06T03:57:44.939Z,989.03
2017-02-06T03:58:55.729Z,989.06
2017-02-06T04:00:06.084Z,989.06
2017-02-06T04:01:16.841Z,989.1
2017-02-06T04:02:26.788Z,989.11
2017-02-06T04:03:37.531Z,989.09
2017-02-06T04:04:47.494Z,989.11
2017-02-06T04:05:57.057Z,989.13
2017-02-06T04:07:07.808Z,989.19
2017-02-06T04:08:18.605Z,989.18
2017-02-06T04:09:28.970Z,989.22
2017-02-06T04:10:39.733Z,989.23
2017-02-06T04:11:50.080Z,989.22
2017-02-06T04:13:00.830Z,989.22
2017-02-06T04:14:11.183Z,989.22
2017-02-06T04:15:21.924Z,989.26
2017-02-06T04:16:32.270Z,989.24
2017-02-06T04:17:43.004Z,989.22
2017-02-06T04:18:53.363Z,989.26
2017-02-06T04:20:04.120Z,989.29
2017-02-06T04:21:14.466Z,989.27
2017-02-06T04:22:25.221Z,989.3
2017-02-06T04:23:35.967Z,989.32
2017-02-06T04:24:46.713Z,989.29
2017-02-06T04:25:57.091Z,989.34
2017-02-06T04:27:07.836Z,989.38
2017-02-06T04:28:18.195Z,989.36
2017-02-06T04:29:28.939Z,989.38
2017-02-06T04:30:39.711Z,989.37
2017-02-06T04:31:49.659Z,989.44
2017-02-06T04:33:00.013Z,989.45
2017-02-06T04:34:10.366Z,989.49
2017-02-06T04:35:21.142Z,989.47
2017-02-06T04:36:31.509Z,989.53
2017-02-06T04:37:41.878Z,989.48
2017-02-06T04:38:52.616Z,989.55
2017-02-06T04:40:02.989Z,989.52
2017-02-06T04:41:13.738Z,989.57
2017-02-06T04:42:23.698Z,989.59
2017-02-06T04:43:34.092Z,989.61
2017-02-06T04:44:44.061Z,989.69
2017-02-06T04:45:54.812Z,989.71
2017-02-06T04:47:05.554Z,989.73
2017-02-06T04:48:15.905Z,989.73
2017-02-06T04:49:26.258Z,989.73
2017-02-06T04:50:36.606Z,989.77
2017-02-06T04:51:47.351Z,989.83
2017-02-06T04:52:58.088Z,989.83
2017-02-06T04:54:08.047Z,989.82
2017-02-06T04:55:18.393Z,989.81
2017-02-06T04:56:29.140Z,989.86
2017-02-06T04:57:39.496Z,989.89
2017-02-06T04:58:49.852Z,989.9
2017-02-06T05:00:00.593Z,989.85
2017-02-06T05:01:10.946Z,989.86
2017-02-06T05:02:21.695Z,989.89
2017-02-06T05:03:32.050Z,989.93
2017-02-06T05:04:42.009Z,989.99
2017-02-06T05:05:52.768Z,989.99
2017-02-06T05:07:03.133Z,989.96
2017-02-06T05:08:13.881Z,989.95
2017-02-06T05:09:24.241Z,990.02
2017-02-06T05:10:34.990Z,989.99
2017-02-06T05:11:45.781Z,990.02
2017-02-06T05:12:56.527Z,990.03
2017-02-06T05:14:07.269Z,990.01
2017-02-06T05:15:18.008Z,990.04
2017-02-06T05:16:28.364Z,990.09
2017-02-06T05:17:39.101Z,990.1
2017-02-06T05:18:49.849Z,990.14
2017-02-06T05:20:00.604Z,990.19
2017-02-06T05:21:10.564Z,990.19
2017-02-06T05:22:21.306Z,990.19
2017-02-06T05:23:31.657Z,990.18
2017-02-06T05:24:42.402Z,990.23
2017-02-06T05:25:52.753Z,990.24
2017-02-06T05:27:03.502Z,990.29
2017-02-06T05:28:13.862Z,990.3
2017-02-06T05:29:23.817Z,990.3
2017-02-06T05:30:34.569Z,990.33
2017-02-06T05:31:45.317Z,990.36
2017-02-06T05:32:55.273Z,990.39
2017-02-06T05:34:06.020Z,990.43
2017-02-06T05:35:16.761Z,990.43
2017-02-06T05:36:26.327Z,990.46
2017-02-06T05:37:37.080Z,990.5
2017-02-06T05:38:47.037Z,990.48
2017-02-06T05:39:57.391Z,990.5
2017-02-06T05:41:08.134Z,990.5
2017-02-06T05:42:18.087Z,990.57
2017-02-06T05:43:28.830Z,990.57
2017-02-06T05:44:39.600Z,990.55
2017-02-06T05:45:49.164Z,990.61
2017-02-06T05:46:59.905Z,990.62
2017-02-06T05:48:10.664Z,990.61
2017-02-06T05:49:21.404Z,990.64
2017-02-06T05:50:31.750Z,990.66
2017-02-06T05:51:41.708Z,990.68
2017-02-06T05:52:52.455Z,990.73
2017-02-06T05:54:02.817Z,990.77
2017-02-06T05:55:13.592Z,990.79
2017-02-06T05:56:23.559Z,990.81
2017-02-06T05:57:34.305Z,990.85
2017-02-06T05:58:44.673Z,990.85
2017-02-06T05:59:55.405Z,990.86
2017-02-06T06:01:05.750Z,990.87
2017-02-06T06:02:16.099Z,990.91
2017-02-06T06:03:25.664Z,990.94
2017-02-06T06:04:36.414Z,990.9
2017-02-06T06:05:46.784Z,990.94
2017-02-06T06:06:56.759Z,991.02
2017-02-06T06:08:07.135Z,991.04
2017-02-06T06:09:16.690Z,991.05
2017-02-06T06:10:27.425Z,991.1
2017-02-06T06:11:37.787Z,991.17
2017-02-06T06:12:48.135Z,991.13
2017-02-06T06:13:58.883Z,991.15
2017-02-06T06:15:09.233Z,991.19
2017-02-06T06:16:19.994Z,991.19
2017-02-06T06:17:29.946Z,991.19
2017-02-06T06:18:39.888Z,991.24
2017-02-06T06:19:50.254Z,991.26
2017-02-06T06:21:00.610Z,991.27
2017-02-06T06:22:10.952Z,991.31
2017-02-06T06:23:21.704Z,991.31
2017-02-06T06:24:32.451Z,991.34
2017-02-06T06:25:42.813Z,991.36
2017-02-06T06:26:53.565Z,991.37
2017-02-06T06:28:04.324Z,991.42
2017-02-06T06:29:15.113Z,991.42
2017-02-06T06:30:25.861Z,991.44
2017-02-06T06:31:35.817Z,991.47
2017-02-06T06:32:46.166Z,991.45
2017-02-06T06:33:56.914Z,991.49
2017-02-06T06:35:07.257Z,991.53
2017-02-06T06:36:17.604Z,991.54
2017-02-06T06:37:28.351Z,991.51
2017-02-06T06:38:39.098Z,991.55
2017-02-06T06:39:49.053Z,991.56
2017-02-06T06:40:59.007Z,991.57
2017-02-06T06:42:08.957Z,991.58
2017-02-06T06:43:18.908Z,991.6
2017-02-06T06:44:29.481Z,991.59
2017-02-06T06:45:39.843Z,991.64
2017-02-06T06:46:50.231Z,991.63
2017-02-06T06:48:00.980Z,991.7
2017-02-06T06:49:11.719Z,991.68
2017-02-06T06:50:22.459Z,991.71
2017-02-06T06:51:32.806Z,991.71
2017-02-06T06:52:42.377Z,991.73
2017-02-06T06:53:52.333Z,991.79
2017-02-06T06:55:03.120Z,991.78
2017-02-06T06:56:13.860Z,991.78
2017-02-06T06:57:23.818Z,991.82
2017-02-06T06:58:34.176Z,991.82
2017-02-06T06:59:44.929Z,991.81
2017-02-06T07:00:55.685Z,991.83
2017-02-06T07:02:06.434Z,991.83
2017-02-06T07:03:16.781Z,991.84
2017-02-06T07:04:27.130Z,991.88
2017-02-06T07:05:37.870Z,991.91
2017-02-06T07:06:47.824Z,991.94
2017-02-06T07:07:57.787Z,991.96
2017-02-06T07:09:08.151Z,991.91
2017-02-06T07:10:18.507Z,991.93
2017-02-06T07:11:28.856Z,991.97
2017-02-06T07:12:39.615Z,992
2017-02-06T07:13:49.589Z,992.01
2017-02-06T07:15:00.354Z,992.05
2017-02-06T07:16:10.711Z,992.03
2017-02-06T07:17:21.454Z,992.06
2017-02-06T07:18:31.420Z,992.06
2017-02-06T07:19:41.382Z,992.09
2017-02-06T07:20:52.120Z,992.08
2017-02-06T07:22:02.868Z,992.08
2017-02-06T07:23:13.613Z,992.12
2017-02-06T07:24:23.572Z,992.18
2017-02-06T07:25:33.526Z,992.2
2017-02-06T07:26:44.287Z,992.2
2017-02-06T07:27:55.035Z,992.21
2017-02-06T07:29:05.779Z,992.26
2017-02-06T07:30:16.536Z,992.29
2017-02-06T07:31:26.884Z,992.29
2017-02-06T07:32:37.634Z,992.29
2017-02-06T07:33:47.990Z,992.3
2017-02-06T07:34:57.555Z,992.29
2017-02-06T07:36:08.293Z,992.35
2017-02-06T07:37:18.110Z,992.35
2017-02-06T07:38:28.659Z,992.35
2017-02-06T07:39:39.422Z,992.41
2017-02-06T07:40:49.384Z,992.42
2017-02-06T07:41:59.336Z,992.42
2017-02-06T07:43:10.091Z,992.45
2017-02-06T07:44:20.834Z,992.45
2017-02-06T07:45:31.235Z,992.47
2017-02-06T07:46:41.581Z,992.5
2017-02-06T07:47:51.927Z,992.46
2017-02-06T07:49:02.677Z,992.48
2017-02-06T07:50:13.420Z,992.5
2017-02-06T07:51:23.369Z,992.51
2017-02-06T07:52:34.114Z,992.53
2017-02-06T07:53:44.873Z,992.58
2017-02-06T07:54:54.830Z,992.56
2017-02-06T07:56:05.190Z,992.59
2017-02-06T07:57:15.533Z,992.58
2017-02-06T07:58:25.498Z,992.56
2017-02-06T07:59:36.251Z,992.6
2017-02-06T08:00:47.027Z,992.61
2017-02-06T08:01:56.999Z,992.62
2017-02-06T08:03:07.748Z,992.67
2017-02-06T08:04:18.094Z,992.66
2017-02-06T08:05:28.839Z,992.66
2017-02-06T08:06:39.826Z,992.71
2017-02-06T08:07:50.564Z,992.71
2017-02-06T08:09:01.317Z,992.73
2017-02-06T08:10:11.731Z,992.77
2017-02-06T08:11:22.463Z,992.79
2017-02-06T08:12:32.825Z,992.81
2017-02-06T08:13:43.434Z,992.81
2017-02-06T08:14:54.193Z,992.8
2017-02-06T08:16:04.951Z,992.85
2017-02-06T08:17:15.708Z,992.88
2017-02-06T08:18:26.063Z,992.89
2017-02-06T08:19:36.414Z,992.86
2017-02-06T08:20:47.175Z,992.84
2017-02-06T08:21:57.525Z,992.89
2017-02-06T08:23:07.096Z,992.87
2017-02-06T08:24:17.066Z,992.91
2017-02-06T08:25:27.020Z,992.88
2017-02-06T08:26:37.381Z,992.9
2017-02-06T08:27:48.126Z,992.89
2017-02-06T08:28:58.080Z,992.92
2017-02-06T08:30:08.051Z,992.92
2017-02-06T08:31:18.410Z,992.9
2017-02-06T08:32:29.139Z,992.93
2017-02-06T08:33:39.511Z,992.92
2017-02-06T08:34:50.537Z,992.94
2017-02-06T08:36:01.310Z,992.93
2017-02-06T08:37:11.257Z,992.93
2017-02-06T08:38:22.022Z,992.98
2017-02-06T08:39:32.393Z,993.01
2017-02-06T08:40:42.361Z,993.04
2017-02-06T08:41:52.714Z,993.02
2017-02-06T08:43:03.478Z,993.08
2017-02-06T08:44:13.437Z,993.08
2017-02-06T08:45:23.794Z,993.1
2017-02-06T08:46:34.538Z,993.09
2017-02-06T08:47:45.286Z,993.12
2017-02-06T08:48:56.027Z,993.12
2017-02-06T08:50:06.019Z,993.14
2017-02-06T08:51:16.780Z,993.14
2017-02-06T08:52:27.541Z,993.17
2017-02-06T08:53:38.290Z,993.15
2017-02-06T08:54:48.246Z,993.18
2017-02-06T08:55:59.011Z,993.17
2017-02-06T08:57:09.757Z,993.17
2017-02-06T08:58:20.506Z,993.23
2017-02-06T08:59:30.863Z,993.22
2017-02-06T09:00:40.813Z,993.22
2017-02-06T09:01:51.204Z,993.24
2017-02-06T09:03:01.165Z,993.25
2017-02-06T09:04:11.544Z,993.28
2017-02-06T09:05:21.505Z,993.32
2017-02-06T09:06:32.259Z,993.33
2017-02-06T09:07:43.009Z,993.36
2017-02-06T09:08:52.583Z,993.39
2017-02-06T09:10:02.941Z,993.41
2017-02-06T09:11:13.301Z,993.39
2017-02-06T09:12:24.060Z,993.39
2017-02-06T09:13:34.815Z,993.35
2017-02-06T09:14:45.599Z,993.43
2017-02-06T09:15:55.942Z,993.4
2017-02-06T09:17:05.899Z,993.45
2017-02-06T09:18:16.644Z,993.42
2017-02-06T09:19:27.396Z,993.44
2017-02-06T09:20:38.137Z,993.42
2017-02-06T09:21:48.100Z,993.48
2017-02-06T09:22:58.475Z,993.48
2017-02-06T09:24:08.838Z,993.52
2017-02-06T09:25:18.804Z,993.53
2017-02-06T09:26:29.551Z,993.57
2017-02-06T09:27:39.493Z,993.56
2017-02-06T09:28:49.855Z,993.55
2017-02-06T09:30:00.203Z,993.56
2017-02-06T09:31:10.951Z,993.6
2017-02-06T09:32:21.298Z,993.64
2017-02-06T09:33:30.899Z,993.62
2017-02-06T09:34:40.855Z,993.62
2017-02-06T09:35:51.218Z,993.65
2017-02-06T09:37:01.563Z,993.69
2017-02-06T09:38:12.323Z,993.68
2017-02-06T09:39:22.697Z,993.66
2017-02-06T09:40:32.658Z,993.7
2017-02-06T09:41:43.013Z,993.74
2017-02-06T09:42:53.376Z,993.75
2017-02-06T09:44:04.133Z,993.76
2017-02-06T09:45:14.478Z,993.8
2017-02-06T09:46:24.835Z,993.8
2017-02-06T09:47:35.191Z,993.82
2017-02-06T09:48:45.544Z,993.82
2017-02-06T09:49:55.887Z,993.88
2017-02-06T09:51:06.242Z,993.88
2017-02-06T09:52:16.607Z,993.88
2017-02-06T09:53:26.949Z,993.88
2017-02-06T09:54:37.506Z,993.87
2017-02-06T09:55:48.286Z,993.86
2017-02-06T09:56:58.637Z,993.89
2017-02-06T09:58:08.607Z,993.88
2017-02-06T09:59:19.364Z,993.89
2017-02-06T10:00:29.761Z,993.9
2017-02-06T10:01:40.126Z,993.92
2017-02-06T10:02:50.883Z,993.96
2017-02-06T10:04:01.653Z,993.95
2017-02-06T10:05:12.014Z,993.93
2017-02-06T10:06:22.749Z,993.98
2017-02-06T10:07:33.495Z,993.97
2017-02-06T10:08:43.878Z,994
2017-02-06T10:09:54.629Z,994
2017-02-06T10:11:05.398Z,994.02
2017-02-06T10:12:15.817Z,994.06
2017-02-06T10:13:26.567Z,994.06
2017-02-06T10:14:36.920Z,994.06
2017-02-06T10:15:46.485Z,994.05
2017-02-06T10:16:57.281Z,994.07
2017-02-06T10:18:08.024Z,994.09
2017-02-06T10:19:18.762Z,994.11
2017-02-06T10:20:29.557Z,994.09
2017-02-06T10:21:39.580Z,994.13
2017-02-06T10:22:49.976Z,994.1
2017-02-06T10:24:00.743Z,994.09
2017-02-06T10:25:11.092Z,994.15
2017-02-06T10:26:21.447Z,994.16
2017-02-06T10:27:31.404Z,994.17
2017-02-06T10:28:42.160Z,994.17
2017-02-06T10:29:52.917Z,994.16
2017-02-06T10:31:03.680Z,994.22
2017-02-06T10:32:13.631Z,994.14
2017-02-06T10:33:23.615Z,994.12
2017-02-06T10:34:34.412Z,994.19
2017-02-06T10:35:45.167Z,994.17
2017-02-06T10:36:54.725Z,994.18
2017-02-06T10:38:04.685Z,994.19
2017-02-06T10:39:14.651Z,994.22
2017-02-06T10:40:25.397Z,994.24
2017-02-06T10:41:36.381Z,994.25
2017-02-06T10:42:47.131Z,994.23
2017-02-06T10:43:57.891Z,994.27
2017-02-06T10:45:08.250Z,994.28
2017-02-06T10:46:17.814Z,994.25
2017-02-06T10:47:28.614Z,994.23
2017-02-06T10:48:38.974Z,994.28
2017-02-06T10:49:49.721Z,994.29
2017-02-06T10:50:59.671Z,994.33
2017-02-06T10:52:10.263Z,994.35
2017-02-06T10:53:21.021Z,994.35
2017-02-06T10:54:31.386Z,994.37
2017-02-06T10:55:42.129Z,994.36
2017-02-06T10:56:52.868Z,994.39
2017-02-06T10:58:03.638Z,994.4
2017-02-06T10:59:14.406Z,994.42
2017-02-06T11:00:25.156Z,994.44
2017-02-06T11:01:35.518Z,994.43
2017-02-06T11:02:45.488Z,994.43
2017-02-06T11:03:56.224Z,994.4
2017-02-06T11:05:06.581Z,994.45
2017-02-06T11:06:16.941Z,994.42
2017-02-06T11:07:26.912Z,994.43
2017-02-06T11:08:36.894Z,994.44
2017-02-06T11:09:47.644Z,994.48
2017-02-06T11:10:57.598Z,994.5
2017-02-06T11:12:07.968Z,994.47
2017-02-06T11:13:18.720Z,994.48
2017-02-06T11:14:29.075Z,994.48
2017-02-06T11:15:39.805Z,994.49
2017-02-06T11:16:50.558Z,994.52
2017-02-06T11:18:01.308Z,994.51
2017-02-06T11:19:11.269Z,994.54
2017-02-06T11:20:21.612Z,994.5
2017-02-06T11:21:31.967Z,994.56
2017-02-06T11:22:42.750Z,994.55
2017-02-06T11:23:53.508Z,994.58
2017-02-06T11:25:04.244Z,994.6
2017-02-06T11:26:14.605Z,994.59
2017-02-06T11:27:25.371Z,994.59
2017-02-06T11:28:35.723Z,994.6
2017-02-06T11:29:46.495Z,994.62
2017-02-06T11:30:56.846Z,994.64
2017-02-06T11:32:07.593Z,994.6
2017-02-06T11:33:18.380Z,994.59
2017-02-06T11:34:28.736Z,994.61
2017-02-06T11:35:39.488Z,994.62
2017-02-06T11:36:50.248Z,994.61
2017-02-06T11:38:00.587Z,994.61
2017-02-06T11:39:10.968Z,994.64
2017-02-06T11:40:21.710Z,994.64
2017-02-06T11:41:32.459Z,994.61
2017-02-06T11:42:43.216Z,994.67
2017-02-06T11:43:53.965Z,994.69
2017-02-06T11:45:03.942Z,994.67
2017-02-06T11:46:13.908Z,994.69
2017-02-06T11:47:23.876Z,994.68
2017-02-06T11:48:33.842Z,994.62
2017-02-06T11:49:44.198Z,994.7
2017-02-06T11:50:54.558Z,994.71
2017-02-06T11:52:05.298Z,994.76
2017-02-06T11:53:15.475Z,994.73
2017-02-06T11:54:25.451Z,994.72
2017-02-06T11:55:35.409Z,994.74
2017-02-06T11:56:45.770Z,994.73
2017-02-06T11:57:55.750Z,994.75
2017-02-06T11:59:06.106Z,994.76
2017-02-06T12:00:16.866Z,994.78
2017-02-06T12:01:26.841Z,994.78
2017-02-06T12:02:37.195Z,994.77
2017-02-06T12:03:47.948Z,994.79
2017-02-06T12:04:58.697Z,994.81
2017-02-06T12:06:09.054Z,994.76
2017-02-06T12:07:19.815Z,994.76
2017-02-06T12:08:30.556Z,994.8
2017-02-06T12:09:40.938Z,994.82
2017-02-06T12:10:51.287Z,994.81
2017-02-06T12:12:02.039Z,994.87
2017-02-06T12:13:12.819Z,994.83
2017-02-06T12:14:23.176Z,994.83
2017-02-06T12:15:32.737Z,994.86
2017-02-06T12:16:43.080Z,994.86
2017-02-06T12:17:53.810Z,994.9
2017-02-06T12:19:03.762Z,994.92
2017-02-06T12:20:14.505Z,994.86
2017-02-06T12:21:24.061Z,994.93
2017-02-06T12:22:34.414Z,994.99
2017-02-06T12:23:45.179Z,994.94
2017-02-06T12:24:55.938Z,994.88
2017-02-06T12:26:06.694Z,994.92
2017-02-06T12:27:17.478Z,994.91
2017-02-06T12:28:27.433Z,994.9
2017-02-06T12:29:37.407Z,994.96
2017-02-06T12:30:48.187Z,994.89
2017-02-06T12:31:58.550Z,994.96
2017-02-06T12:33:09.291Z,994.9
2017-02-06T12:34:19.637Z,994.94
2017-02-06T12:35:29.204Z,994.91
2017-02-06T12:36:39.573Z,994.97
2017-02-06T12:37:49.932Z,995.03
2017-02-06T12:39:00.679Z,995
2017-02-06T12:40:11.438Z,995
2017-02-06T12:41:21.809Z,995.09
2017-02-06T12:42:32.163Z,995.09
2017-02-06T12:43:42.516Z,995.11
2017-02-06T12:44:51.703Z,995.15
2017-02-06T12:46:02.069Z,995.17
2017-02-06T12:47:12.429Z,995.16
2017-02-06T12:48:22.768Z,995.17
2017-02-06T12:49:33.125Z,995.2
2017-02-06T12:50:43.476Z,995.23
2017-02-06T12:51:53.449Z,995.21
2017-02-06T12:53:04.238Z,995.24
2017-02-06T12:54:14.986Z,995.21
2017-02-06T12:55:24.952Z,995.27
2017-02-06T12:56:35.324Z,995.25
2017-02-06T12:57:45.694Z,995.22
2017-02-06T12:58:55.655Z,995.24
2017-02-06T13:00:05.633Z,995.24
2017-02-06T13:01:15.981Z,995.25
2017-02-06T13:02:26.975Z,995.23
2017-02-06T13:03:37.346Z,995.27
2017-02-06T13:04:47.316Z,995.2
2017-02-06T13:05:58.083Z,995.25
2017-02-06T13:07:08.830Z,995.25
2017-02-06T13:08:18.795Z,995.29
2017-02-06T13:09:29.157Z,995.27
2017-02-06T13:10:39.920Z,995.27
2017-02-06T13:11:50.684Z,995.24
2017-02-06T13:13:00.637Z,995.29
2017-02-06T13:14:11.039Z,995.25
2017-02-06T13:15:21.397Z,995.31
2017-02-06T13:16:31.789Z,995.28
2017-02-06T13:17:42.557Z,995.31
2017-02-06T13:18:53.320Z,995.34
2017-02-06T13:20:04.061Z,995.31
2017-02-06T13:21:14.811Z,995.34
2017-02-06T13:22:25.177Z,995.38
2017-02-06T13:23:35.934Z,995.37
2017-02-06T13:24:46.685Z,995.4
2017-02-06T13:25:56.638Z,995.42
2017-02-06T13:27:06.982Z,995.42
2017-02-06T13:28:17.337Z,995.45
2017-02-06T13:29:28.084Z,995.45
2017-02-06T13:30:38.833Z,995.45
2017-02-06T13:31:49.579Z,995.4
2017-02-06T13:32:59.961Z,995.44
2017-02-06T13:34:10.707Z,995.48
2017-02-06T13:35:21.065Z,995.47
2017-02-06T13:36:31.817Z,995.5
2017-02-06T13:37:42.161Z,995.48
2017-02-06T13:38:52.511Z,995.52
2017-02-06T13:40:02.865Z,995.52
2017-02-06T13:41:13.613Z,995.48
2017-02-06T13:42:23.571Z,995.5
2017-02-06T13:43:33.926Z,995.53
2017-02-06T13:44:43.490Z,995.55
2017-02-06T13:45:54.241Z,995.51
2017-02-06T13:47:04.198Z,995.56
2017-02-06T13:48:14.569Z,995.53
2017-02-06T13:49:25.339Z,995.56
2017-02-06T13:50:35.707Z,995.58
2017-02-06T13:51:46.054Z,995.63
2017-02-06T13:52:56.456Z,995.67
2017-02-06T13:54:06.818Z,995.64
2017-02-06T13:55:16.769Z,995.61
2017-02-06T13:56:27.530Z,995.71
2017-02-06T13:57:37.497Z,995.65
2017-02-06T13:58:48.244Z,995.7
2017-02-06T13:59:58.988Z,995.71
2017-02-06T14:01:09.376Z,995.74
2017-02-06T14:02:20.125Z,995.78
2017-02-06T14:03:30.880Z,995.76
2017-02-06T14:04:41.246Z,995.79
2017-02-06T14:05:51.224Z,995.78
2017-02-06T14:07:01.972Z,995.77
2017-02-06T14:08:12.720Z,995.83
2017-02-06T14:09:23.064Z,995.8
2017-02-06T14:10:33.810Z,995.83
2017-02-06T14:11:43.803Z,995.91
2017-02-06T14:12:54.569Z,995.91
2017-02-06T14:14:04.931Z,995.9
2017-02-06T14:15:15.302Z,995.94
2017-02-06T14:16:25.669Z,995.92
2017-02-06T14:17:36.026Z,995.95
2017-02-06T14:18:46.783Z,995.96
2017-02-06T14:19:57.144Z,995.95
2017-02-06T14:21:07.901Z,995.92
2017-02-06T14:22:18.244Z,995.97
2017-02-06T14:23:28.207Z,995.96
2017-02-06T14:24:38.166Z,996.01
2017-02-06T14:25:48.543Z,996.02
2017-02-06T14:26:59.298Z,996.04
2017-02-06T14:28:10.050Z,996.01
2017-02-06T14:29:20.424Z,996.04
2017-02-06T14:30:30.398Z,996.03
2017-02-06T14:31:40.745Z,996.04
2017-02-06T14:32:50.710Z,996.02
2017-02-06T14:34:01.061Z,996.06
2017-02-06T14:35:11.416Z,996.06
2017-02-06T14:36:22.211Z,996.06
2017-02-06T14:37:32.174Z,996.09
2017-02-06T14:38:42.516Z,996.1
2017-02-06T14:39:52.868Z,996.11
2017-02-06T14:41:03.250Z,996.13
2017-02-06T14:42:14.009Z,996.16
2017-02-06T14:43:24.768Z,996.17
2017-02-06T14:44:35.131Z,996.15
2017-02-06T14:45:45.977Z,996.16
2017-02-06T14:46:56.342Z,996.14
2017-02-06T14:48:06.701Z,996.17
2017-02-06T14:49:17.100Z,996.16
2017-02-06T14:50:27.845Z,996.13
2017-02-06T14:51:38.202Z,996.13
2017-02-06T14:52:48.947Z,996.19
2017-02-06T14:53:59.716Z,996.18
2017-02-06T14:55:10.477Z,996.18
2017-02-06T14:56:20.822Z,996.19
2017-02-06T14:57:30.778Z,996.2
2017-02-06T14:58:41.536Z,996.22
2017-02-06T14:59:50.596Z,996.21
2017-02-06T15:01:01.359Z,996.27
2017-02-06T15:02:11.740Z,996.26
2017-02-06T15:03:21.714Z,996.28
2017-02-06T15:04:31.282Z,996.31
2017-02-06T15:05:42.032Z,996.29
2017-02-06T15:06:51.588Z,996.29
2017-02-06T15:08:02.335Z,996.32
2017-02-06T15:09:13.110Z,996.34
2017-02-06T15:10:23.467Z,996.36
2017-02-06T15:11:33.850Z,996.35
2017-02-06T15:12:44.219Z,996.37